Main page
METAR-TAF:

METAR-TAF

Airports :

Luxeuil-les-Bains, France

Luxeuil Air Base

latitude: 47-47N, longitude: 006-21E, elevation: 278 m

Current weather observation

The report was made 40 minutes ago, at 21:30 UTC
Calm wind
Temperature 1°C
Humidity 86%
Pressure 1016 hPa
Visibility 10 km or more
Broken clouds at a height of 2800 ft
Overcast at a height of 9000 ft

METAR: LFSX 192130Z AUTO 00000KT 9999 BKN028 OVC090 01/M01 Q1016

Time: 23:10 (22:10 UTC)

Forecast

The report was made 8 hours and 10 minutes ago, at 14:00 UTC
Forecast valid from 19 at 15 UTC to 20 at 15 UTC
Wind 5 kt from variable directions
Visibility 10 km or more
Broken clouds at a height of 3000 ft
Temporary
from 20 at 03 UTC to 20 at 06 UTC
Visibility: 4000 m
mist

TAF: LFSX 191400Z 1915/2015 VRB05KT 9999 BKN030 TEMPO 2003/2006 4000 BR

Weather observations and forecasts of more than 4000 airports (METAR and TAF reports).

The available stations are represented by yellow and red dots on the map.

Hover mouse over dot to see the name of the station.

Then click to see weather observations and forecasts.

To change the map : click on the green buttons with a black cross to zoom in, on the green button with a dash to zoom out, or on the green arrows for adjacent maps.


METAR-TAF: